Time,TemperatureF,DewpointF,PressureIn,WindDirection,WindDirectionDegrees,WindSpeedMPH,WindSpeedGustMPH,Humidity,HourlyPrecipIn,Conditions,Clouds,dailyrainin,SoftwareType,DateUTC
2013-12-16 00:02:00,42.5,21.0,29.97,WSW,238,22.0,23.0,42,0.00,CLR,CLR,0.00,WeatherDisplay:10.34,2013-12-16 07:02:00,
2013-12-16 00:07:00,42.5,21.0,29.97,SSW,205,21.0,23.0,42,0.00,CLR,CLR,0.00,WeatherDisplay:10.34,2013-12-16 07:07:00,
2013-12-16 00:12:00,42.7,21.2,29.97,SW,215,22.0,25.0,42,0.00,CLR,CLR,0.00,WeatherDisplay:10.34,2013-12-16 07:12:00,
2013-12-16 00:17:00,42.7,21.2,29.97,SW,231,19.0,21.0,42,0.00,CLR,CLR,0.00,WeatherDisplay:10.34,2013-12-16 07:17:00,
2013-12-16 00:22:00,42.7,21.2,29.97,WSW,246,18.0,22.0,42,0.00,CLR,CLR,0.00,WeatherDisplay:10.34,2013-12-16 07:22:00,
2013-12-16 00:27:00,43.2,21.1,29.97,SSW,209,15.0,21.0,41,0.00,CLR,CLR,0.00,WeatherDisplay:10.34,2013-12-16 07:27:00,
2013-12-16 00:32:00,43.5,20.7,29.97,WSW,241,22.0,26.0,40,0.00,CLR,CLR,0.00,WeatherDisplay:10.34,2013-12-16 07:32:00,
2013-12-16 00:37:00,43.7,20.9,29.97,SW,233,19.0,23.0,40,0.00,CLR,CLR,0.00,WeatherDisplay:10.34,2013-12-16 07:37:00,
2013-12-16 00:42:00,43.7,20.9,29.96,WSW,248,31.0,36.0,40,0.00,CLR,CLR,0.00,WeatherDisplay:10.34,2013-12-16 07:42:00,
2013-12-16 00:47:00,43.6,20.8,29.96,SW,229,20.0,24.0,40,0.00,CLR,CLR,0.00,WeatherDisplay:10.34,2013-12-16 07:47:00,
2013-12-16 00:52:00,43.5,20.7,29.96,SW,229,22.0,28.0,40,0.00,CLR,CLR,0.00,WeatherDisplay:10.34,2013-12-16 07:52:00,
2013-12-16 00:57:00,43.6,20.8,29.96,SW,219,29.0,29.0,40,0.00,CLR,CLR,0.00,WeatherDisplay:10.34,2013-12-16 07:57:00,
2013-12-16 01:02:00,43.4,21.2,29.96,SW,219,21.0,22.0,41,0.00,CLR,CLR,0.00,WeatherDisplay:10.34,2013-12-16 08:02:00,
2013-12-16 01:07:00,43.3,21.1,29.96,West,277,25.0,36.0,41,0.00,CLR,CLR,0.00,WeatherDisplay:10.34,2013-12-16 08:07:00,
2013-12-16 01:12:00,43.3,21.1,29.96,SW,225,22.0,32.0,41,0.00,CLR,CLR,0.00,WeatherDisplay:10.34,2013-12-16 08:12:00,
2013-12-16 01:17:00,43.4,20.7,29.95,WSW,257,26.0,31.0,40,0.00,CLR,CLR,0.00,WeatherDisplay:10.34,2013-12-16 08:17:00,
2013-12-16 01:22:00,43.5,20.7,29.96,WSW,256,19.0,22.0,40,0.00,CLR,CLR,0.00,WeatherDisplay:10.34,2013-12-16 08:22:00,
2013-12-16 01:27:00,43.3,21.1,29.96,SW,223,26.0,29.0,41,0.00,CLR,CLR,0.00,WeatherDisplay:10.34,2013-12-16 08:27:00,
2013-12-16 01:32:00,43.2,20.5,29.96,SW,235,27.0,32.0,40,0.00,CLR,CLR,0.00,WeatherDisplay:10.34,2013-12-16 08:32:00,
2013-12-16 01:37:00,43.3,21.1,29.96,WSW,237,21.0,25.0,41,0.00,CLR,CLR,0.00,WeatherDisplay:10.34,2013-12-16 08:37:00,
2013-12-16 01:42:00,43.4,20.7,29.96,WSW,248,21.0,23.0,40,0.00,CLR,CLR,0.00,WeatherDisplay:10.34,2013-12-16 08:42:00,
2013-12-16 01:47:00,43.9,20.5,29.96,SW,234,23.0,28.0,39,0.00,CLR,CLR,0.00,WeatherDisplay:10.34,2013-12-16 08:47:00,
2013-12-16 01:52:00,44.2,20.2,29.96,WSW,237,27.0,29.0,38,0.00,CLR,CLR,0.00,WeatherDisplay:10.34,2013-12-16 08:52:00,
2013-12-16 01:57:00,44.3,20.3,29.96,WSW,254,17.0,22.0,38,0.00,CLR,CLR,0.00,WeatherDisplay:10.34,2013-12-16 08:57:00,
2013-12-16 02:02:00,44.5,20.4,29.96,WSW,238,24.0,28.0,38,0.00,CLR,CLR,0.00,WeatherDisplay:10.34,2013-12-16 09:02:00,
2013-12-16 02:07:00,44.6,20.5,29.96,WSW,247,21.0,24.0,38,0.00,CLR,CLR,0.00,WeatherDisplay:10.34,2013-12-16 09:07:00,
2013-12-16 02:12:00,44.7,20.0,29.97,West,269,22.0,28.0,37,0.00,CLR,CLR,0.00,WeatherDisplay:10.34,2013-12-16 09:12:00,
2013-12-16 02:17:00,44.7,20.0,29.96,WSW,240,23.0,23.0,37,0.00,CLR,CLR,0.00,WeatherDisplay:10.34,2013-12-16 09:17:00,
2013-12-16 02:22:00,44.9,20.2,29.96,West,267,26.0,31.0,37,0.00,CLR,CLR,0.00,WeatherDisplay:10.34,2013-12-16 09:22:00,
2013-12-16 02:27:00,44.8,20.1,29.96,WSW,254,27.0,32.0,37,0.00,CLR,CLR,0.00,WeatherDisplay:10.34,2013-12-16 09:27:00,
2013-12-16 02:32:00,44.9,20.2,29.96,WSW,254,23.0,28.0,37,0.00,CLR,CLR,0.00,WeatherDisplay:10.34,2013-12-16 09:32:00,
2013-12-16 02:37:00,44.9,20.2,29.96,WSW,252,26.0,29.0,37,0.00,CLR,CLR,0.00,WeatherDisplay:10.34,2013-12-16 09:37:00,
2013-12-16 02:42:00,44.9,20.2,29.97,West,268,31.0,37.0,37,0.00,CLR,CLR,0.00,WeatherDisplay:10.34,2013-12-16 09:42:00,
2013-12-16 02:47:00,45.0,20.3,29.97,WNW,286,27.0,31.0,37,0.00,CLR,CLR,0.00,WeatherDisplay:10.34,2013-12-16 09:47:00,
2013-12-16 02:52:00,44.8,20.1,29.97,SSW,210,24.0,29.0,37,0.00,CLR,CLR,0.00,WeatherDisplay:10.34,2013-12-16 09:52:00,
2013-12-16 02:57:00,44.6,19.9,29.97,West,259,33.0,37.0,37,0.00,CLR,CLR,0.00,WeatherDisplay:10.34,2013-12-16 09:57:00,
2013-12-16 03:03:00,44.7,19.3,29.97,WNW,283,27.0,35.0,36,0.00,CLR,CLR,0.00,WeatherDisplay:10.34,2013-12-16 10:03:00,
2013-12-16 03:08:00,44.7,20.0,29.97,WSW,240,22.0,31.0,37,0.00,CLR,CLR,0.00,WeatherDisplay:10.34,2013-12-16 10:08:00,
2013-12-16 03:13:00,44.7,19.3,29.97,WSW,242,32.0,32.0,36,0.00,CLR,CLR,0.00,WeatherDisplay:10.34,2013-12-16 10:13:00,
2013-12-16 03:18:00,44.8,19.4,29.97,West,261,30.0,33.0,36,0.00,CLR,CLR,0.00,WeatherDisplay:10.34,2013-12-16 10:18:00,
2013-12-16 03:23:00,44.8,20.1,29.97,West,263,29.0,37.0,37,0.00,CLR,CLR,0.00,WeatherDisplay:10.34,2013-12-16 10:23:00,
2013-12-16 03:28:00,44.8,19.4,29.97,SW,225,39.0,40.0,36,0.00,CLR,CLR,0.00,WeatherDisplay:10.34,2013-12-16 10:28:00,
2013-12-16 03:33:00,44.7,19.3,29.97,WSW,257,26.0,37.0,36,0.00,CLR,CLR,0.00,WeatherDisplay:10.34,2013-12-16 10:33:00,
2013-12-16 03:38:00,44.3,19.6,29.97,WSW,237,28.0,33.0,37,0.00,CLR,CLR,0.00,WeatherDisplay:10.34,2013-12-16 10:38:00,
2013-12-16 03:43:00,44.0,19.4,29.97,WSW,239,25.0,37.0,37,0.00,CLR,CLR,0.00,WeatherDisplay:10.34,2013-12-16 10:43:00,
2013-12-16 03:48:00,44.1,20.1,29.97,SW,229,26.0,28.0,38,0.00,CLR,CLR,0.00,WeatherDisplay:10.34,2013-12-16 10:48:00,
2013-12-16 03:53:00,44.0,20.0,29.97,SSW,196,22.0,22.0,38,0.00,CLR,CLR,0.00,WeatherDisplay:10.34,2013-12-16 10:53:00,
2013-12-16 03:58:00,43.6,20.2,29.97,SW,229,28.0,29.0,39,0.00,CLR,CLR,0.00,WeatherDisplay:10.34,2013-12-16 10:58:00,
2013-12-16 04:03:00,43.1,20.4,29.97,WSW,253,17.0,23.0,40,0.00,CLR,CLR,0.00,WeatherDisplay:10.34,2013-12-16 11:03:00,
2013-12-16 04:08:00,43.0,19.7,29.97,WSW,257,31.0,37.0,39,0.00,CLR,CLR,0.00,WeatherDisplay:10.34,2013-12-16 11:08:00,
2013-12-16 04:13:00,43.9,19.9,29.97,SW,229,30.0,36.0,38,0.00,CLR,CLR,0.00,WeatherDisplay:10.34,2013-12-16 11:13:00,
2013-12-16 04:18:00,43.9,19.9,29.97,West,277,22.0,33.0,38,0.00,CLR,CLR,0.00,WeatherDisplay:10.34,2013-12-16 11:18:00,
2013-12-16 04:23:00,43.4,19.5,29.97,West,263,30.0,30.0,38,0.00,CLR,CLR,0.00,WeatherDisplay:10.34,2013-12-16 11:23:00,
2013-12-16 04:28:00,43.1,19.8,29.97,WSW,248,30.0,37.0,39,0.00,CLR,CLR,0.00,WeatherDisplay:10.34,2013-12-16 11:28:00,
2013-12-16 04:33:00,43.0,19.7,29.97,WSW,245,31.0,35.0,39,0.00,CLR,CLR,0.00,WeatherDisplay:10.34,2013-12-16 11:33:00,
2013-12-16 04:38:00,42.9,19.6,29.97,WSW,246,30.0,35.0,39,0.00,CLR,CLR,0.00,WeatherDisplay:10.34,2013-12-16 11:38:00,
2013-12-16 04:43:00,42.7,20.0,29.97,WSW,255,27.0,35.0,40,0.00,CLR,CLR,0.00,WeatherDisplay:10.34,2013-12-16 11:43:00,
2013-12-16 04:48:00,42.5,19.8,29.97,WSW,253,24.0,24.0,40,0.00,CLR,CLR,0.00,WeatherDisplay:10.34,2013-12-16 11:48:00,
2013-12-16 04:53:00,42.6,19.9,29.98,West,269,24.0,31.0,40,0.00,CLR,CLR,0.00,WeatherDisplay:10.34,2013-12-16 11:53:00,
2013-12-16 04:58:00,42.5,19.8,29.98,SSW,200,29.0,32.0,40,0.00,CLR,CLR,0.00,WeatherDisplay:10.34,2013-12-16 11:58:00,
2013-12-16 05:03:00,42.4,19.8,29.98,West,276,35.0,35.0,40,0.00,CLR,CLR,0.00,WeatherDisplay:10.34,2013-12-16 12:03:00,
2013-12-16 05:08:00,42.4,19.8,29.98,West,268,32.0,36.0,40,0.00,CLR,CLR,0.00,WeatherDisplay:10.34,2013-12-16 12:08:00,
2013-12-16 05:13:00,42.3,19.7,29.99,West,261,35.0,35.0,40,0.00,CLR,CLR,0.00,WeatherDisplay:10.34,2013-12-16 12:13:00,
2013-12-16 05:18:00,42.3,19.7,29.99,West,280,30.0,31.0,40,0.00,CLR,CLR,0.00,WeatherDisplay:10.34,2013-12-16 12:18:00,
2013-12-16 05:23:00,42.2,20.2,29.98,West,272,26.0,26.0,41,0.00,CLR,CLR,0.00,WeatherDisplay:10.34,2013-12-16 12:23:00,
2013-12-16 05:28:00,42.2,20.2,29.98,SW,228,27.0,27.0,41,0.00,CLR,CLR,0.00,WeatherDisplay:10.34,2013-12-16 12:28:00,
2013-12-16 05:33:00,42.0,20.0,29.98,WSW,245,23.0,25.0,41,0.00,CLR,CLR,0.00,WeatherDisplay:10.34,2013-12-16 12:33:00,
2013-12-16 05:38:00,41.9,19.9,29.98,West,259,23.0,32.0,41,0.00,CLR,CLR,0.00,WeatherDisplay:10.34,2013-12-16 12:38:00,
2013-12-16 05:43:00,41.9,19.9,29.98,WSW,247,28.0,37.0,41,0.00,CLR,CLR,0.00,WeatherDisplay:10.34,2013-12-16 12:43:00,
2013-12-16 05:48:00,41.8,19.8,29.98,SW,219,30.0,35.0,41,0.00,CLR,CLR,0.00,WeatherDisplay:10.34,2013-12-16 12:48:00,
2013-12-16 05:53:00,41.6,19.6,29.99,West,264,29.0,29.0,41,0.00,CLR,CLR,0.00,WeatherDisplay:10.34,2013-12-16 12:53:00,
2013-12-16 05:58:00,41.5,20.1,29.99,SW,234,32.0,33.0,42,0.00,CLR,CLR,0.00,WeatherDisplay:10.34,2013-12-16 12:58:00,
2013-12-16 06:03:00,41.6,20.2,29.99,SW,236,31.0,33.0,42,0.00,CLR,CLR,0.00,WeatherDisplay:10.34,2013-12-16 13:03:00,
2013-12-16 06:08:00,41.6,20.2,29.99,SW,229,19.0,19.0,42,0.00,CLR,CLR,0.00,WeatherDisplay:10.34,2013-12-16 13:08:00,
2013-12-16 06:13:00,41.1,19.7,29.98,WSW,238,25.0,25.0,42,0.00,CLR,CLR,0.00,WeatherDisplay:10.34,2013-12-16 13:13:00,
2013-12-16 06:18:00,41.0,20.2,29.98,WSW,252,29.0,32.0,43,0.00,CLR,CLR,0.00,WeatherDisplay:10.34,2013-12-16 13:18:00,
2013-12-16 06:23:00,41.0,20.2,29.99,WSW,252,25.0,31.0,43,0.00,CLR,CLR,0.00,WeatherDisplay:10.34,2013-12-16 13:23:00,
2013-12-16 06:28:00,41.4,20.0,29.99,SW,231,23.0,28.0,42,0.00,CLR,CLR,0.00,WeatherDisplay:10.34,2013-12-16 13:28:00,
2013-12-16 06:33:00,41.6,20.2,29.98,West,265,30.0,33.0,42,0.00,CLR,CLR,0.00,WeatherDisplay:10.34,2013-12-16 13:33:00,
2013-12-16 06:38:00,41.7,19.7,29.98,WSW,257,24.0,25.0,41,0.00,CLR,CLR,0.00,WeatherDisplay:10.34,2013-12-16 13:38:00,
2013-12-16 06:43:00,41.8,19.8,29.99,WSW,253,25.0,31.0,41,0.00,CLR,CLR,0.00,WeatherDisplay:10.34,2013-12-16 13:43:00,
2013-12-16 06:48:00,42.1,19.5,29.99,West,264,28.0,31.0,40,0.00,CLR,CLR,0.00,WeatherDisplay:10.34,2013-12-16 13:48:00,
2013-12-16 06:53:00,42.6,19.9,29.99,WSW,243,26.0,29.0,40,0.00,CLR,CLR,0.00,WeatherDisplay:10.34,2013-12-16 13:53:00,
2013-12-16 06:58:00,42.7,19.4,29.99,SW,236,23.0,25.0,39,0.00,CLR,CLR,0.00,WeatherDisplay:10.34,2013-12-16 13:58:00,
2013-12-16 07:03:00,42.7,19.4,30.00,WSW,245,21.0,36.0,39,0.00,OVC,OVC,0.00,WeatherDisplay:10.34,2013-12-16 14:03:00,
2013-12-16 07:08:00,42.8,19.5,30.00,WSW,244,24.0,24.0,39,0.00,OVC,OVC,0.00,WeatherDisplay:10.34,2013-12-16 14:08:00,
2013-12-16 07:13:00,42.7,19.4,30.00,WSW,246,24.0,29.0,39,0.00,OVC,OVC,0.00,WeatherDisplay:10.34,2013-12-16 14:13:00,
2013-12-16 07:18:00,42.9,19.0,30.00,WSW,240,21.0,25.0,38,0.00,OVC,OVC,0.00,WeatherDisplay:10.34,2013-12-16 14:18:00,
2013-12-16 07:23:00,42.9,19.0,30.00,West,259,24.0,24.0,38,0.00,OVC,OVC,0.00,WeatherDisplay:10.34,2013-12-16 14:23:00,
2013-12-16 07:28:00,42.8,19.5,30.00,WSW,243,27.0,31.0,39,0.00,OVC,OVC,0.00,WeatherDisplay:10.34,2013-12-16 14:28:00,
2013-12-16 07:33:00,42.9,19.0,30.00,WSW,237,22.0,32.0,38,0.00,OVC,OVC,0.00,WeatherDisplay:10.34,2013-12-16 14:33:00,
2013-12-16 07:38:00,43.1,19.2,30.00,SW,235,26.0,26.0,38,0.00,OVC,OVC,0.00,WeatherDisplay:10.34,2013-12-16 14:38:00,
2013-12-16 07:43:00,43.3,18.7,30.00,SW,234,29.0,38.0,37,0.00,OVC,OVC,0.00,WeatherDisplay:10.34,2013-12-16 14:43:00,
2013-12-16 07:48:00,43.4,18.8,30.00,WSW,253,26.0,33.0,37,0.00,OVC,OVC,0.00,WeatherDisplay:10.34,2013-12-16 14:48:00,
2013-12-16 07:53:00,43.4,18.8,30.00,WSW,257,27.0,27.0,37,0.00,OVC,OVC,0.00,WeatherDisplay:10.34,2013-12-16 14:53:00,
2013-12-16 07:58:00,43.4,18.8,30.00,SW,233,23.0,29.0,37,0.00,OVC,OVC,0.00,WeatherDisplay:10.34,2013-12-16 14:58:00,
2013-12-16 08:03:00,43.4,18.8,30.00,West,265,26.0,35.0,37,0.00,OVC,OVC,0.00,WeatherDisplay:10.34,2013-12-16 15:03:00,
2013-12-16 08:08:00,43.5,18.9,30.00,WSW,244,19.0,22.0,37,0.00,OVC,OVC,0.00,WeatherDisplay:10.34,2013-12-16 15:08:00,
2013-12-16 08:13:00,43.7,19.1,30.01,SSW,208,30.0,30.0,37,0.00,OVC,OVC,0.00,WeatherDisplay:10.34,2013-12-16 15:13:00,
2013-12-16 08:18:00,43.6,19.0,30.01,SW,221,26.0,28.0,37,0.00,OVC,OVC,0.00,WeatherDisplay:10.34,2013-12-16 15:18:00,
2013-12-16 08:23:00,43.6,19.6,30.01,West,268,23.0,24.0,38,0.00,OVC,OVC,0.00,WeatherDisplay:10.34,2013-12-16 15:23:00,
2013-12-16 08:28:00,43.6,19.0,30.01,WSW,252,24.0,33.0,37,0.00,CLR,CLR,0.00,WeatherDisplay:10.34,2013-12-16 15:28:00,
2013-12-16 08:33:00,43.6,19.6,30.01,WSW,242,29.0,37.0,38,0.00,CLR,CLR,0.00,WeatherDisplay:10.34,2013-12-16 15:33:00,
2013-12-16 08:38:00,43.6,19.6,30.01,SW,234,22.0,25.0,38,0.00,CLR,CLR,0.00,WeatherDisplay:10.34,2013-12-16 15:38:00,
2013-12-16 08:43:00,43.6,19.6,30.02,SW,224,25.0,28.0,38,0.00,CLR,CLR,0.00,WeatherDisplay:10.34,2013-12-16 15:43:00,
2013-12-16 08:48:00,43.8,19.8,30.02,WSW,238,31.0,40.0,38,0.00,CLR,CLR,0.00,WeatherDisplay:10.34,2013-12-16 15:48:00,
2013-12-16 08:53:00,43.9,19.9,30.03,WSW,244,27.0,31.0,38,0.00,CLR,CLR,0.00,WeatherDisplay:10.34,2013-12-16 15:53:00,
2013-12-16 08:58:00,44.0,19.4,30.03,WSW,245,26.0,26.0,37,0.00,CLR,CLR,0.00,WeatherDisplay:10.34,2013-12-16 15:58:00,
2013-12-16 09:03:00,44.1,20.1,30.03,WNW,288,22.0,33.0,38,0.00,CLR,CLR,0.00,WeatherDisplay:10.34,2013-12-16 16:03:00,
2013-12-16 09:08:00,44.2,20.2,30.03,SW,235,22.0,25.0,38,0.00,CLR,CLR,0.00,WeatherDisplay:10.34,2013-12-16 16:08:00,
2013-12-16 09:13:00,44.4,19.7,30.03,WSW,249,23.0,24.0,37,0.00,CLR,CLR,0.00,WeatherDisplay:10.34,2013-12-16 16:13:00,
2013-12-16 09:18:00,44.9,19.5,30.04,West,265,27.0,28.0,36,0.00,CLR,CLR,0.00,WeatherDisplay:10.34,2013-12-16 16:18:00,
2013-12-16 09:23:00,45.1,19.7,30.04,SW,236,21.0,25.0,36,0.00,CLR,CLR,0.00,WeatherDisplay:10.34,2013-12-16 16:23:00,
2013-12-16 09:28:00,45.5,19.4,30.04,WNW,287,29.0,29.0,35,0.00,CLR,CLR,0.00,WeatherDisplay:10.34,2013-12-16 16:28:00,
2013-12-16 09:33:00,45.9,19.8,30.04,West,263,33.0,33.0,35,0.00,CLR,CLR,0.00,WeatherDisplay:10.34,2013-12-16 16:33:00,
2013-12-16 09:38:00,46.3,19.4,30.05,West,269,24.0,24.0,34,0.00,CLR,CLR,0.00,WeatherDisplay:10.34,2013-12-16 16:38:00,
2013-12-16 09:43:00,46.8,19.9,30.05,WSW,250,25.0,29.0,34,0.00,CLR,CLR,0.00,WeatherDisplay:10.34,2013-12-16 16:43:00,
2013-12-16 09:48:00,47.0,20.0,30.05,WSW,248,20.0,23.0,34,0.00,CLR,CLR,0.00,WeatherDisplay:10.34,2013-12-16 16:48:00,
2013-12-16 09:53:00,47.4,20.4,30.05,WSW,258,21.0,25.0,34,0.00,CLR,CLR,0.00,WeatherDisplay:10.34,2013-12-16 16:53:00,
2013-12-16 09:58:00,47.7,20.0,30.05,WSW,242,26.0,37.0,33,0.00,CLR,CLR,0.00,WeatherDisplay:10.34,2013-12-16 16:58:00,
2013-12-16 10:03:00,47.9,20.1,30.06,WSW,253,19.0,28.0,33,0.00,CLR,CLR,0.00,WeatherDisplay:10.34,2013-12-16 17:03:00,
2013-12-16 10:08:00,47.8,19.3,30.06,WSW,247,26.0,26.0,32,0.00,CLR,CLR,0.00,WeatherDisplay:10.34,2013-12-16 17:08:00,
2013-12-16 10:13:00,47.9,19.4,30.06,West,263,24.0,25.0,32,0.00,CLR,CLR,0.00,WeatherDisplay:10.34,2013-12-16 17:13:00,
2013-12-16 10:18:00,48.0,19.5,30.06,SW,232,17.0,26.0,32,0.00,CLR,CLR,0.00,WeatherDisplay:10.34,2013-12-16 17:18:00,
2013-12-16 10:23:00,48.2,19.7,30.06,West,273,24.0,24.0,32,0.00,CLR,CLR,0.00,WeatherDisplay:10.34,2013-12-16 17:23:00,
2013-12-16 10:28:00,48.5,19.9,30.06,SW,219,23.0,25.0,32,0.00,CLR,CLR,0.00,WeatherDisplay:10.34,2013-12-16 17:28:00,
2013-12-16 10:33:00,48.6,20.0,30.06,West,259,27.0,28.0,32,0.00,CLR,CLR,0.00,WeatherDisplay:10.34,2013-12-16 17:33:00,
2013-12-16 10:38:00,48.6,20.0,30.06,WSW,257,25.0,28.0,32,0.00,CLR,CLR,0.00,WeatherDisplay:10.34,2013-12-16 17:38:00,
2013-12-16 10:43:00,48.7,20.1,30.06,WSW,243,27.0,27.0,32,0.00,CLR,CLR,0.00,WeatherDisplay:10.34,2013-12-16 17:43:00,
2013-12-16 10:48:00,49.2,20.6,30.05,WSW,252,21.0,25.0,32,0.00,CLR,CLR,0.00,WeatherDisplay:10.34,2013-12-16 17:48:00,
2013-12-16 10:53:00,49.6,20.2,30.05,WSW,246,21.0,23.0,31,0.00,CLR,CLR,0.00,WeatherDisplay:10.34,2013-12-16 17:53:00,
2013-12-16 10:58:00,50.1,21.3,30.05,SW,229,22.0,31.0,32,0.00,CLR,CLR,0.00,WeatherDisplay:10.34,2013-12-16 17:58:00,
2013-12-16 11:03:00,50.3,20.8,30.05,WSW,252,20.0,25.0,31,0.00,CLR,CLR,0.00,WeatherDisplay:10.34,2013-12-16 18:03:00,
2013-12-16 11:08:00,50.6,21.8,30.05,West,260,15.0,20.0,32,0.00,CLR,CLR,0.00,WeatherDisplay:10.34,2013-12-16 18:08:00,
2013-12-16 11:13:00,51.0,20.6,30.04,SW,215,19.0,23.0,30,0.00,CLR,CLR,0.00,WeatherDisplay:10.34,2013-12-16 18:13:00,
2013-12-16 11:18:00,50.9,20.5,30.04,WSW,237,29.0,33.0,30,0.00,CLR,CLR,0.00,WeatherDisplay:10.34,2013-12-16 18:18:00,
2013-12-16 11:23:00,50.8,20.4,30.04,West,260,25.0,25.0,30,0.00,CLR,CLR,0.00,WeatherDisplay:10.34,2013-12-16 18:23:00,
2013-12-16 11:28:00,50.6,20.3,30.04,WSW,248,23.0,23.0,30,0.00,CLR,CLR,0.00,WeatherDisplay:10.34,2013-12-16 18:28:00,
2013-12-16 11:33:00,50.6,20.3,30.04,SW,232,26.0,26.0,30,0.00,CLR,CLR,0.00,WeatherDisplay:10.34,2013-12-16 18:33:00,
2013-12-16 11:38:00,50.5,20.2,30.03,WSW,241,24.0,29.0,30,0.00,CLR,CLR,0.00,WeatherDisplay:10.34,2013-12-16 18:38:00,
2013-12-16 11:43:00,50.1,20.6,30.03,SSW,207,24.0,24.0,31,0.00,FEW,FEW,0.00,WeatherDisplay:10.34,2013-12-16 18:43:00,
2013-12-16 11:48:00,49.8,20.3,30.03,WSW,250,17.0,20.0,31,0.00,SCT,SCT,0.00,WeatherDisplay:10.34,2013-12-16 18:48:00,
2013-12-16 11:53:00,49.7,21.0,30.04,WSW,256,25.0,33.0,32,0.00,CLR,CLR,0.00,WeatherDisplay:10.34,2013-12-16 18:53:00,
2013-12-16 11:58:00,49.7,20.2,30.03,SW,232,27.0,29.0,31,0.00,CLR,CLR,0.00,WeatherDisplay:10.34,2013-12-16 18:58:00,
2013-12-16 12:03:00,49.4,20.0,30.03,SW,231,29.0,29.0,31,0.00,SCT,SCT,0.00,WeatherDisplay:10.34,2013-12-16 19:03:00,
2013-12-16 12:08:00,48.9,20.3,30.04,WSW,246,28.0,29.0,32,0.00,CLR,CLR,0.00,WeatherDisplay:10.34,2013-12-16 19:08:00,
2013-12-16 12:13:00,48.6,20.0,30.03,SW,221,23.0,24.0,32,0.00,SCT,SCT,0.00,WeatherDisplay:10.34,2013-12-16 19:13:00,
2013-12-16 12:18:00,48.3,20.5,30.03,SW,236,23.0,24.0,33,0.00,BKN,BKN,0.00,WeatherDisplay:10.34,2013-12-16 19:18:00,
2013-12-16 12:23:00,47.9,20.1,30.04,SW,232,27.0,27.0,33,0.00,OVC,OVC,0.00,WeatherDisplay:10.34,2013-12-16 19:23:00,
2013-12-16 12:28:00,47.7,20.0,30.04,WSW,249,24.0,24.0,33,0.00,OVC,OVC,0.00,WeatherDisplay:10.34,2013-12-16 19:28:00,
2013-12-16 12:33:00,47.5,19.8,30.04,WSW,246,27.0,33.0,33,0.00,BKN,BKN,0.00,WeatherDisplay:10.34,2013-12-16 19:33:00,
2013-12-16 12:38:00,47.4,20.4,30.04,SW,232,24.0,26.0,34,0.00,BKN,BKN,0.00,WeatherDisplay:10.34,2013-12-16 19:38:00,
2013-12-16 12:43:00,47.4,20.4,30.04,SW,231,26.0,31.0,34,0.00,BKN,BKN,0.00,WeatherDisplay:10.34,2013-12-16 19:43:00,
2013-12-16 12:48:00,47.6,20.6,30.04,SW,225,29.0,31.0,34,0.00,BKN,BKN,0.00,WeatherDisplay:10.34,2013-12-16 19:48:00,
2013-12-16 12:53:00,47.6,20.6,30.04,SW,227,30.0,30.0,34,0.00,BKN,BKN,0.00,WeatherDisplay:10.34,2013-12-16 19:53:00,
2013-12-16 12:58:00,47.6,20.6,30.04,SW,231,21.0,22.0,34,0.00,OVC,OVC,0.00,WeatherDisplay:10.34,2013-12-16 19:58:00,
2013-12-16 13:03:00,47.5,20.5,30.04,SW,229,27.0,32.0,34,0.00,BKN,BKN,0.00,WeatherDisplay:10.34,2013-12-16 20:03:00,
2013-12-16 13:08:00,47.7,21.3,30.04,SW,227,23.0,23.0,35,0.00,FEW,FEW,0.00,WeatherDisplay:10.34,2013-12-16 20:08:00,
2013-12-16 13:13:00,47.9,20.8,30.04,WSW,248,28.0,35.0,34,0.00,SCT,SCT,0.00,WeatherDisplay:10.34,2013-12-16 20:13:00,
2013-12-16 13:18:00,48.2,21.8,30.04,West,276,20.0,26.0,35,0.00,SCT,SCT,0.00,WeatherDisplay:10.34,2013-12-16 20:18:00,
2013-12-16 13:23:00,48.5,21.4,30.03,WSW,238,20.0,23.0,34,0.00,SCT,SCT,0.00,WeatherDisplay:10.34,2013-12-16 20:23:00,
2013-12-16 13:28:00,48.7,21.5,30.03,SW,217,17.0,21.0,34,0.00,BKN,BKN,0.00,WeatherDisplay:10.34,2013-12-16 20:28:00,
2013-12-16 13:33:00,48.7,20.8,30.03,WSW,238,28.0,31.0,33,0.00,SCT,SCT,0.00,WeatherDisplay:10.34,2013-12-16 20:33:00,
2013-12-16 13:38:00,49.0,21.1,30.03,SW,236,26.0,26.0,33,0.00,FEW,FEW,0.00,WeatherDisplay:10.34,2013-12-16 20:38:00,
2013-12-16 13:43:00,49.1,21.2,30.03,SW,223,23.0,23.0,33,0.00,FEW,FEW,0.00,WeatherDisplay:10.34,2013-12-16 20:43:00,
2013-12-16 13:48:00,49.3,20.6,30.03,WSW,238,16.0,17.0,32,0.00,SCT,SCT,0.00,WeatherDisplay:10.34,2013-12-16 20:48:00,
2013-12-16 13:53:00,49.5,20.8,30.03,WSW,242,21.0,22.0,32,0.00,FEW,FEW,0.00,WeatherDisplay:10.34,2013-12-16 20:53:00,
2013-12-16 13:58:00,49.7,20.2,30.03,WSW,256,19.0,23.0,31,0.00,SCT,SCT,0.00,WeatherDisplay:10.34,2013-12-16 20:58:00,
2013-12-16 14:03:00,49.8,20.3,30.03,SW,234,18.0,21.0,31,0.00,SCT,SCT,0.00,WeatherDisplay:10.34,2013-12-16 21:03:00,
2013-12-16 14:08:00,50.0,20.5,30.03,SW,231,15.0,17.0,31,0.00,SCT,SCT,0.00,WeatherDisplay:10.34,2013-12-16 21:08:00,
2013-12-16 14:13:00,50.0,20.5,30.03,WSW,250,15.0,16.0,31,0.00,SCT,SCT,0.00,WeatherDisplay:10.34,2013-12-16 21:13:00,
2013-12-16 14:18:00,49.9,20.4,30.02,WSW,242,22.0,24.0,31,0.00,BKN,BKN,0.00,WeatherDisplay:10.34,2013-12-16 21:18:00,
2013-12-16 14:23:00,49.9,20.4,30.03,WSW,244,19.0,22.0,31,0.00,SCT,SCT,0.00,WeatherDisplay:10.34,2013-12-16 21:23:00,
2013-12-16 14:28:00,50.0,20.5,30.03,West,265,17.0,17.0,31,0.00,SCT,SCT,0.00,WeatherDisplay:10.34,2013-12-16 21:28:00,
2013-12-16 14:33:00,49.9,20.4,30.03,WSW,245,21.0,22.0,31,0.00,SCT,SCT,0.00,WeatherDisplay:10.34,2013-12-16 21:33:00,
2013-12-16 14:38:00,49.7,21.0,30.03,WSW,251,20.0,21.0,32,0.00,SCT,SCT,0.00,WeatherDisplay:10.34,2013-12-16 21:38:00,
2013-12-16 14:43:00,49.6,20.9,30.03,SW,227,25.0,25.0,32,0.00,SCT,SCT,0.00,WeatherDisplay:10.34,2013-12-16 21:43:00,
2013-12-16 14:48:00,49.6,20.9,30.03,SW,234,18.0,20.0,32,0.00,BKN,BKN,0.00,WeatherDisplay:10.34,2013-12-16 21:48:00,
2013-12-16 14:53:00,49.6,20.9,30.04,SW,230,13.0,14.0,32,0.00,BKN,BKN,0.00,WeatherDisplay:10.34,2013-12-16 21:53:00,
2013-12-16 14:58:00,49.6,20.2,30.04,WSW,237,14.0,14.0,31,0.00,BKN,BKN,0.00,WeatherDisplay:10.34,2013-12-16 21:58:00,
2013-12-16 15:03:00,49.8,20.3,30.04,SW,221,19.0,21.0,31,0.00,BKN,BKN,0.00,WeatherDisplay:10.34,2013-12-16 22:03:00,
2013-12-16 15:08:00,49.9,20.4,30.04,WSW,253,17.0,21.0,31,0.00,BKN,BKN,0.00,WeatherDisplay:10.34,2013-12-16 22:08:00,
2013-12-16 15:13:00,49.9,21.2,30.05,WSW,257,12.0,17.0,32,0.00,BKN,BKN,0.00,WeatherDisplay:10.34,2013-12-16 22:13:00,
2013-12-16 15:18:00,49.9,20.4,30.05,WSW,238,17.0,21.0,31,0.00,SCT,SCT,0.00,WeatherDisplay:10.34,2013-12-16 22:18:00,
2013-12-16 15:23:00,50.0,20.5,30.05,SW,232,18.0,25.0,31,0.00,SCT,SCT,0.00,WeatherDisplay:10.34,2013-12-16 22:23:00,
2013-12-16 15:28:00,50.0,19.7,30.05,West,277,16.0,20.0,30,0.00,OVC,OVC,0.00,WeatherDisplay:10.34,2013-12-16 22:28:00,
2013-12-16 15:33:00,49.9,20.4,30.06,WSW,242,17.0,17.0,31,0.00,OVC,OVC,0.00,WeatherDisplay:10.34,2013-12-16 22:33:00,
2013-12-16 15:38:00,49.7,20.2,30.06,WSW,238,12.0,15.0,31,0.00,SCT,SCT,0.00,WeatherDisplay:10.34,2013-12-16 22:38:00,
2013-12-16 15:43:00,49.6,20.9,30.07,SW,225,13.0,13.0,32,0.00,FEW,FEW,0.00,WeatherDisplay:10.34,2013-12-16 22:43:00,
2013-12-16 15:48:00,49.6,20.2,30.07,WSW,250,18.0,18.0,31,0.00,CLR,CLR,0.00,WeatherDisplay:10.34,2013-12-16 22:48:00,
2013-12-16 15:53:00,49.7,20.2,30.07,WSW,257,14.0,15.0,31,0.00,OVC,OVC,0.00,WeatherDisplay:10.34,2013-12-16 22:53:00,
2013-12-16 15:58:00,49.6,20.2,30.07,WSW,248,21.0,21.0,31,0.00,OVC,OVC,0.00,WeatherDisplay:10.34,2013-12-16 22:58:00,
2013-12-16 16:03:00,49.3,20.6,30.07,West,263,16.0,20.0,32,0.00,OVC,OVC,0.00,WeatherDisplay:10.34,2013-12-16 23:03:00,
2013-12-16 16:08:00,49.1,20.5,30.07,SW,227,21.0,21.0,32,0.00,OVC,OVC,0.00,WeatherDisplay:10.34,2013-12-16 23:08:00,
2013-12-16 16:13:00,49.0,20.4,30.08,WSW,250,19.0,20.0,32,0.00,OVC,OVC,0.00,WeatherDisplay:10.34,2013-12-16 23:13:00,
2013-12-16 16:18:00,48.9,20.3,30.08,West,259,16.0,21.0,32,0.00,OVC,OVC,0.00,WeatherDisplay:10.34,2013-12-16 23:18:00,
2013-12-16 16:23:00,48.6,20.8,30.08,WSW,254,15.0,17.0,33,0.00,OVC,OVC,0.00,WeatherDisplay:10.34,2013-12-16 23:23:00,
2013-12-16 16:28:00,48.2,20.4,30.08,WSW,248,20.0,22.0,33,0.00,OVC,OVC,0.00,WeatherDisplay:10.34,2013-12-16 23:28:00,
2013-12-16 16:33:00,48.1,20.3,30.08,WSW,257,19.0,22.0,33,0.00,OVC,OVC,0.00,WeatherDisplay:10.34,2013-12-16 23:33:00,
2013-12-16 16:38:00,47.8,20.8,30.08,WSW,258,15.0,15.0,34,0.00,OVC,OVC,0.00,WeatherDisplay:10.34,2013-12-16 23:38:00,
2013-12-16 16:43:00,47.5,20.5,30.07,WSW,255,14.0,16.0,34,0.00,OVC,OVC,0.00,WeatherDisplay:10.34,2013-12-16 23:43:00,
2013-12-16 16:48:00,47.1,20.8,30.08,WNW,284,15.0,16.0,35,0.00,OVC,OVC,0.00,WeatherDisplay:10.34,2013-12-16 23:48:00,
2013-12-16 16:53:00,46.7,20.5,30.08,West,279,14.0,16.0,35,0.00,OVC,OVC,0.00,WeatherDisplay:10.34,2013-12-16 23:53:00,
2013-12-16 16:58:00,46.5,20.3,30.08,WSW,250,16.0,17.0,35,0.00,OVC,OVC,0.00,WeatherDisplay:10.34,2013-12-16 23:58:00,
2013-12-16 17:03:00,46.6,20.4,30.08,WSW,244,13.0,13.0,35,0.00,CLR,CLR,0.00,WeatherDisplay:10.34,2013-12-17 00:03:00,
2013-12-16 17:08:00,46.6,20.4,30.08,West,261,14.0,14.0,35,0.00,CLR,CLR,0.00,WeatherDisplay:10.34,2013-12-17 00:08:00,
2013-12-16 17:13:00,46.6,20.4,30.08,WSW,240,14.0,17.0,35,0.00,CLR,CLR,0.00,WeatherDisplay:10.34,2013-12-17 00:13:00,
2013-12-16 17:18:00,46.6,20.4,30.08,West,264,21.0,21.0,35,0.00,CLR,CLR,0.00,WeatherDisplay:10.34,2013-12-17 00:18:00,
2013-12-16 17:23:00,46.8,20.6,30.08,WSW,244,16.0,17.0,35,0.00,CLR,CLR,0.00,WeatherDisplay:10.34,2013-12-17 00:23:00,
2013-12-16 17:28:00,46.7,20.5,30.08,WSW,246,15.0,15.0,35,0.00,CLR,CLR,0.00,WeatherDisplay:10.34,2013-12-17 00:28:00,
2013-12-16 17:33:00,46.7,20.5,30.08,WSW,256,12.0,15.0,35,0.00,CLR,CLR,0.00,WeatherDisplay:10.34,2013-12-17 00:33:00,
2013-12-16 17:38:00,46.9,20.6,30.08,WSW,258,19.0,19.0,35,0.00,CLR,CLR,0.00,WeatherDisplay:10.34,2013-12-17 00:38:00,
2013-12-16 17:43:00,47.0,20.0,30.08,WSW,250,17.0,17.0,34,0.00,CLR,CLR,0.00,WeatherDisplay:10.34,2013-12-17 00:43:00,
2013-12-16 17:48:00,47.1,20.8,30.08,West,271,19.0,21.0,35,0.00,CLR,CLR,0.00,WeatherDisplay:10.34,2013-12-17 00:48:00,
2013-12-16 17:53:00,47.2,20.2,30.08,WSW,248,15.0,15.0,34,0.00,CLR,CLR,0.00,WeatherDisplay:10.34,2013-12-17 00:53:00,
2013-12-16 17:58:00,47.2,20.9,30.08,West,264,13.0,16.0,35,0.00,CLR,CLR,0.00,WeatherDisplay:10.34,2013-12-17 00:58:00,
2013-12-16 18:03:00,47.2,20.9,30.09,WSW,238,15.0,20.0,35,0.00,CLR,CLR,0.00,WeatherDisplay:10.34,2013-12-17 01:03:00,
2013-12-16 18:08:00,47.1,20.8,30.09,WSW,250,14.0,15.0,35,0.00,CLR,CLR,0.00,WeatherDisplay:10.34,2013-12-17 01:08:00,
2013-12-16 18:13:00,47.0,20.7,30.09,West,270,17.0,20.0,35,0.00,CLR,CLR,0.00,WeatherDisplay:10.34,2013-12-17 01:13:00,
2013-12-16 18:18:00,47.2,20.2,30.09,WSW,243,13.0,17.0,34,0.00,CLR,CLR,0.00,WeatherDisplay:10.34,2013-12-17 01:18:00,
2013-12-16 18:23:00,47.3,20.3,30.08,WSW,248,13.0,13.0,34,0.00,CLR,CLR,0.00,WeatherDisplay:10.34,2013-12-17 01:23:00,
2013-12-16 18:26:00,47.2,20.9,30.08,WSW,242,7.0,10.0,35,0.00,CLR,CLR,0.00,WeatherDisplay:10.34,2013-12-17 01:26:00,
2013-12-16 18:31:00,46.9,20.6,30.08,WSW,254,9.0,9.0,35,0.00,CLR,CLR,0.00,WeatherDisplay:10.34,2013-12-17 01:31:00,
2013-12-16 18:36:00,46.5,20.9,30.08,West,260,14.0,14.0,36,0.00,CLR,CLR,0.00,WeatherDisplay:10.34,2013-12-17 01:36:00,
2013-12-16 18:41:00,46.3,20.8,30.07,SW,214,18.0,18.0,36,0.00,CLR,CLR,0.00,WeatherDisplay:10.34,2013-12-17 01:41:00,
2013-12-16 18:46:00,46.3,20.8,30.08,WSW,240,15.0,17.0,36,0.00,CLR,CLR,0.00,WeatherDisplay:10.34,2013-12-17 01:46:00,
2013-12-16 18:51:00,46.3,20.8,30.08,WSW,242,16.0,20.0,36,0.00,CLR,CLR,0.00,WeatherDisplay:10.34,2013-12-17 01:51:00,
2013-12-16 18:57:00,46.3,20.8,30.08,WSW,238,17.0,20.0,36,0.00,CLR,CLR,0.00,WeatherDisplay:10.34,2013-12-17 01:57:00,
2013-12-16 19:02:00,46.7,20.5,30.08,West,260,12.0,16.0,35,0.00,CLR,CLR,0.00,WeatherDisplay:10.34,2013-12-17 02:02:00,
2013-12-16 19:07:00,47.0,20.7,30.08,WSW,254,13.0,13.0,35,0.00,CLR,CLR,0.00,WeatherDisplay:10.34,2013-12-17 02:07:00,
2013-12-16 19:12:00,47.0,20.7,30.10,WSW,244,10.0,12.0,35,0.00,CLR,CLR,0.00,WeatherDisplay:10.34,2013-12-17 02:12:00,
2013-12-16 19:17:00,47.0,20.0,30.10,West,261,13.0,14.0,34,0.00,CLR,CLR,0.00,WeatherDisplay:10.34,2013-12-17 02:17:00,
2013-12-16 19:22:00,47.1,20.1,30.10,WSW,258,18.0,20.0,34,0.00,CLR,CLR,0.00,WeatherDisplay:10.34,2013-12-17 02:22:00,
2013-12-16 19:27:00,47.3,20.3,30.10,WSW,242,17.0,17.0,34,0.00,CLR,CLR,0.00,WeatherDisplay:10.34,2013-12-17 02:27:00,
2013-12-16 19:32:00,47.5,20.5,30.10,WSW,252,14.0,20.0,34,0.00,CLR,CLR,0.00,WeatherDisplay:10.34,2013-12-17 02:32:00,
2013-12-16 19:37:00,47.5,20.5,30.10,West,272,16.0,16.0,34,0.00,CLR,CLR,0.00,WeatherDisplay:10.34,2013-12-17 02:37:00,
2013-12-16 19:42:00,47.6,19.9,30.10,WSW,241,17.0,22.0,33,0.00,CLR,CLR,0.00,WeatherDisplay:10.34,2013-12-17 02:42:00,
2013-12-16 19:47:00,47.7,20.0,30.10,WSW,248,17.0,21.0,33,0.00,CLR,CLR,0.00,WeatherDisplay:10.34,2013-12-17 02:47:00,
2013-12-16 19:52:00,47.6,19.9,30.10,WSW,245,16.0,17.0,33,0.00,CLR,CLR,0.00,WeatherDisplay:10.34,2013-12-17 02:52:00,
2013-12-16 19:57:00,47.6,20.6,30.10,West,263,14.0,16.0,34,0.00,CLR,CLR,0.00,WeatherDisplay:10.34,2013-12-17 02:57:00,
2013-12-16 20:02:00,47.4,20.4,30.10,WSW,258,11.0,16.0,34,0.00,CLR,CLR,0.00,WeatherDisplay:10.34,2013-12-17 03:02:00,
2013-12-16 20:07:00,47.1,20.1,30.10,WSW,238,17.0,17.0,34,0.00,CLR,CLR,0.00,WeatherDisplay:10.34,2013-12-17 03:07:00,
2013-12-16 20:12:00,47.1,20.1,30.10,West,259,15.0,21.0,34,0.00,CLR,CLR,0.00,WeatherDisplay:10.34,2013-12-17 03:12:00,
2013-12-16 20:17:00,47.2,20.2,30.10,West,264,13.0,14.0,34,0.00,CLR,CLR,0.00,WeatherDisplay:10.34,2013-12-17 03:17:00,
2013-12-16 20:22:00,47.0,20.0,30.10,SW,225,15.0,20.0,34,0.00,CLR,CLR,0.00,WeatherDisplay:10.34,2013-12-17 03:22:00,
2013-12-16 20:27:00,46.9,20.6,30.11,SW,229,13.0,14.0,35,0.00,CLR,CLR,0.00,WeatherDisplay:10.34,2013-12-17 03:27:00,
2013-12-16 20:32:00,46.8,19.9,30.11,WSW,254,16.0,20.0,34,0.00,CLR,CLR,0.00,WeatherDisplay:10.34,2013-12-17 03:32:00,
2013-12-16 20:37:00,46.8,19.9,30.11,WSW,246,16.0,21.0,34,0.00,CLR,CLR,0.00,WeatherDisplay:10.34,2013-12-17 03:37:00,
2013-12-16 20:42:00,46.8,19.9,30.11,West,261,20.0,20.0,34,0.00,CLR,CLR,0.00,WeatherDisplay:10.34,2013-12-17 03:42:00,
2013-12-16 20:47:00,46.9,20.0,30.11,WSW,242,24.0,28.0,34,0.00,CLR,CLR,0.00,WeatherDisplay:10.34,2013-12-17 03:47:00,
2013-12-16 20:52:00,47.0,20.0,30.11,WSW,254,17.0,21.0,34,0.00,CLR,CLR,0.00,WeatherDisplay:10.34,2013-12-17 03:52:00,
2013-12-16 20:57:00,46.9,20.0,30.11,WSW,248,15.0,20.0,34,0.00,CLR,CLR,0.00,WeatherDisplay:10.34,2013-12-17 03:57:00,
2013-12-16 21:03:00,46.8,19.9,30.11,WSW,246,17.0,22.0,34,0.00,CLR,CLR,0.00,WeatherDisplay:10.34,2013-12-17 04:03:00,
2013-12-16 21:08:00,46.7,19.8,30.11,SW,232,19.0,22.0,34,0.00,CLR,CLR,0.00,WeatherDisplay:10.34,2013-12-17 04:08:00,
2013-12-16 21:13:00,46.8,19.9,30.11,West,273,18.0,22.0,34,0.00,CLR,CLR,0.00,WeatherDisplay:10.34,2013-12-17 04:13:00,
2013-12-16 21:18:00,46.9,20.0,30.11,SW,231,20.0,25.0,34,0.00,CLR,CLR,0.00,WeatherDisplay:10.34,2013-12-17 04:18:00,
2013-12-16 21:23:00,46.9,20.0,30.12,WSW,252,22.0,24.0,34,0.00,CLR,CLR,0.00,WeatherDisplay:10.34,2013-12-17 04:23:00,
2013-12-16 21:28:00,46.8,20.6,30.12,West,263,16.0,21.0,35,0.00,CLR,CLR,0.00,WeatherDisplay:10.34,2013-12-17 04:28:00,
2013-12-16 21:33:00,46.7,19.8,30.12,WSW,252,17.0,17.0,34,0.00,CLR,CLR,0.00,WeatherDisplay:10.34,2013-12-17 04:33:00,
2013-12-16 21:38:00,46.7,20.5,30.12,WSW,248,22.0,23.0,35,0.00,CLR,CLR,0.00,WeatherDisplay:10.34,2013-12-17 04:38:00,
2013-12-16 21:43:00,46.8,19.9,30.12,WSW,248,23.0,26.0,34,0.00,CLR,CLR,0.00,WeatherDisplay:10.34,2013-12-17 04:43:00,
2013-12-16 21:48:00,46.9,20.0,30.12,West,264,21.0,24.0,34,0.00,CLR,CLR,0.00,WeatherDisplay:10.34,2013-12-17 04:48:00,
2013-12-16 21:53:00,47.0,20.0,30.12,West,263,19.0,21.0,34,0.00,CLR,CLR,0.00,WeatherDisplay:10.34,2013-12-17 04:53:00,
2013-12-16 21:58:00,47.0,20.0,30.12,West,270,18.0,21.0,34,0.00,CLR,CLR,0.00,WeatherDisplay:10.34,2013-12-17 04:58:00,
2013-12-16 22:01:00,46.9,20.0,30.12,SW,234,23.0,25.0,34,0.00,CLR,CLR,0.00,WeatherDisplay:10.34,2013-12-17 05:01:00,
2013-12-16 22:02:00,46.9,20.0,30.12,West,261,21.0,28.0,34,0.00,CLR,CLR,0.00,WeatherDisplay:10.34,2013-12-17 05:02:00,
2013-12-16 22:04:00,46.9,20.0,30.12,SW,232,25.0,26.0,34,0.00,CLR,CLR,0.00,WeatherDisplay:10.34,2013-12-17 05:04:00,
2013-12-16 22:06:00,46.9,20.0,30.12,NNW,327,20.0,21.0,34,0.00,CLR,CLR,0.00,WeatherDisplay:10.34,2013-12-17 05:06:00,
2013-12-16 22:11:00,46.9,20.6,30.12,WSW,240,17.0,23.0,35,0.00,CLR,CLR,0.00,WeatherDisplay:10.34,2013-12-17 05:11:00,
2013-12-16 22:16:00,46.9,20.6,30.12,WSW,258,22.0,35.0,35,0.00,CLR,CLR,0.00,WeatherDisplay:10.34,2013-12-17 05:16:00,
2013-12-16 22:21:00,46.9,20.6,30.12,WSW,248,23.0,25.0,35,0.00,CLR,CLR,0.00,WeatherDisplay:10.34,2013-12-17 05:21:00,
2013-12-16 22:26:00,46.9,20.6,30.12,West,263,22.0,28.0,35,0.00,CLR,CLR,0.00,WeatherDisplay:10.34,2013-12-17 05:26:00,
2013-12-16 22:31:00,47.1,20.1,30.12,West,271,20.0,24.0,34,0.00,CLR,CLR,0.00,WeatherDisplay:10.34,2013-12-17 05:31:00,
2013-12-16 22:36:00,47.0,20.0,30.12,SW,227,17.0,23.0,34,0.00,CLR,CLR,0.00,WeatherDisplay:10.34,2013-12-17 05:36:00,
2013-12-16 22:41:00,46.9,20.6,30.13,WSW,249,26.0,26.0,35,0.00,CLR,CLR,0.00,WeatherDisplay:10.34,2013-12-17 05:41:00,
2013-12-16 22:46:00,46.8,20.6,30.13,SW,225,28.0,35.0,35,0.00,CLR,CLR,0.00,WeatherDisplay:10.34,2013-12-17 05:46:00,
2013-12-16 22:51:00,46.8,20.6,30.13,SW,236,26.0,32.0,35,0.00,CLR,CLR,0.00,WeatherDisplay:10.34,2013-12-17 05:51:00,
2013-12-16 22:56:00,46.8,20.6,30.13,West,265,23.0,24.0,35,0.00,CLR,CLR,0.00,WeatherDisplay:10.34,2013-12-17 05:56:00,
2013-12-16 23:01:00,46.8,20.6,30.13,WSW,252,22.0,32.0,35,0.00,CLR,CLR,0.00,WeatherDisplay:10.34,2013-12-17 06:01:00,
2013-12-16 23:06:00,46.8,20.6,30.13,West,272,17.0,17.0,35,0.00,CLR,CLR,0.00,WeatherDisplay:10.34,2013-12-17 06:06:00,
2013-12-16 23:11:00,46.7,20.5,30.13,West,263,21.0,26.0,35,0.00,CLR,CLR,0.00,WeatherDisplay:10.34,2013-12-17 06:11:00,
2013-12-16 23:16:00,46.6,20.4,30.13,WSW,254,24.0,28.0,35,0.00,CLR,CLR,0.00,WeatherDisplay:10.34,2013-12-17 06:16:00,
2013-12-16 23:21:00,46.6,20.4,30.13,WSW,242,27.0,28.0,35,0.00,CLR,CLR,0.00,WeatherDisplay:10.34,2013-12-17 06:21:00,
2013-12-16 23:26:00,46.7,20.5,30.13,WSW,242,19.0,24.0,35,0.00,CLR,CLR,0.00,WeatherDisplay:10.34,2013-12-17 06:26:00,
2013-12-16 23:31:00,46.4,20.9,30.14,SW,232,17.0,17.0,36,0.00,CLR,CLR,0.00,WeatherDisplay:10.34,2013-12-17 06:31:00,
2013-12-16 23:36:00,46.2,20.7,30.14,SSW,202,19.0,19.0,36,0.00,CLR,CLR,0.00,WeatherDisplay:10.34,2013-12-17 06:36:00,
2013-12-16 23:41:00,46.0,20.5,30.14,WSW,255,13.0,13.0,36,0.00,CLR,CLR,0.00,WeatherDisplay:10.34,2013-12-17 06:41:00,
2013-12-16 23:46:00,45.9,20.4,30.14,West,269,17.0,20.0,36,0.00,CLR,CLR,0.00,WeatherDisplay:10.34,2013-12-17 06:46:00,
2013-12-16 23:51:00,46.0,20.5,30.14,SW,234,11.0,11.0,36,0.00,CLR,CLR,0.00,WeatherDisplay:10.34,2013-12-17 06:51:00,
2013-12-16 23:56:00,46.1,20.6,30.15,West,263,20.0,20.0,36,0.00,CLR,CLR,0.00,WeatherDisplay:10.34,2013-12-17 06:56:00,